Time;durP1;ratioP1;P1;durP2;ratioP2;P2;SDS_P1;SDS_P2;PMS_P1;PMS_P2;Temp;Humidity;BMP_temperature;BMP_pressure;BME280_temperature;BME280_humidity;BME280_pressure;Samples;Min_cycle;Max_cycle;Signal;HPM_P1;HPM_P2
2022/01/14 00:00:18;;;;;;;14.98;6.78;;;14.90;85.20;;;;;;4126292;28;20120;-63
2022/01/14 00:02:41;;;;;;;16.67;7.25;;;14.90;85.30;;;;;;4125832;28;20439;-64
2022/01/14 00:05:06;;;;;;;12.30;7.50;;;14.90;84.90;;;;;;4119439;28;20097;-63
2022/01/14 00:07:29;;;;;;;13.93;6.28;;;14.90;84.80;;;;;;4109800;28;20054;-64
2022/01/14 00:09:53;;;;;;;10.45;6.00;;;14.90;86.60;;;;;;4109880;28;20054;-63
2022/01/14 00:12:23;;;;;;;13.00;6.40;;;14.90;87.10;;;;;;4109762;28;20055;-63
2022/01/14 00:14:58;;;;;;;17.80;6.50;;;15.00;87.70;;;;;;4109730;28;20740;-63
2022/01/14 00:17:21;;;;;;;9.35;6.13;;;15.00;87.60;;;;;;4108706;28;20058;-63
2022/01/14 00:19:44;;;;;;;20.80;7.63;;;15.00;87.50;;;;;;4110044;28;20446;-63
2022/01/14 00:22:13;;;;;;;18.58;7.85;;;15.10;87.40;;;;;;4110001;28;20102;-63
2022/01/14 00:32:47;;;;;;;15.60;6.55;;;15.20;87.30;;;;;;4108931;28;20470;-61
2022/01/14 00:35:10;;;;;;;15.27;6.93;;;15.30;87.50;;;;;;4109904;28;20098;-63
2022/01/14 00:37:35;;;;;;;10.75;6.30;;;15.40;87.80;;;;;;4124799;28;20069;-62
2022/01/14 00:39:58;;;;;;;12.60;6.63;;;15.50;86.30;;;;;;4126203;28;20082;-63
2022/01/14 00:42:21;;;;;;;11.52;6.50;;;15.60;85.90;;;;;;4093955;28;20047;-63
2022/01/14 00:44:44;;;;;;;14.30;7.35;;;15.60;85.70;;;;;;4108031;28;20058;-63
2022/01/14 00:47:08;;;;;;;16.85;7.03;;;15.60;85.40;;;;;;4120671;28;20072;-63
2022/01/14 00:49:31;;;;;;;12.38;6.55;;;15.60;85.40;;;;;;4140631;28;20457;-63
2022/01/14 00:51:54;;;;;;;15.25;6.28;;;15.70;85.20;;;;;;4127088;28;20112;-62
2022/01/14 00:54:19;;;;;;;13.57;6.90;;;15.60;85.30;;;;;;4112900;28;20097;-62
2022/01/14 00:56:49;;;;;;;10.25;6.45;;;15.60;85.40;;;;;;4120490;28;20549;-63
2022/01/14 00:59:14;;;;;;;10.90;6.80;;;15.60;85.40;;;;;;4128043;28;20034;-63
2022/01/14 01:01:38;;;;;;;13.10;6.45;;;15.50;85.60;;;;;;4113857;28;20046;-63
2022/01/14 01:04:01;;;;;;;18.15;7.03;;;15.50;85.90;;;;;;4112869;28;20050;-62
2022/01/14 01:06:24;;;;;;;13.10;6.80;;;15.50;86.30;;;;;;4119697;28;20108;-63
2022/01/14 01:08:49;;;;;;;19.30;7.30;;;15.50;86.20;;;;;;4129069;28;20042;-63
2022/01/14 01:11:14;;;;;;;14.27;6.85;;;15.60;85.90;;;;;;4117231;28;20046;-63
2022/01/14 01:13:42;;;;;;;16.08;6.90;;;15.70;85.50;;;;;;4112306;28;20082;-63
2022/01/14 01:16:05;;;;;;;15.98;7.43;;;15.70;85.30;;;;;;4116760;28;20101;-63
2022/01/14 01:18:28;;;;;;;13.63;6.72;;;15.70;85.10;;;;;;4128526;28;20058;-63
2022/01/14 01:20:53;;;;;;;14.95;7.35;;;15.70;85.00;;;;;;4117436;28;20446;-62
2022/01/14 01:23:16;;;;;;;15.68;6.90;;;15.70;84.90;;;;;;4112582;28;20102;-63
2022/01/14 01:25:58;;;;;;;17.85;6.75;;;15.70;85.10;;;;;;4115154;28;20105;-63
2022/01/14 01:28:23;;;;;;;16.38;6.30;;;15.70;86.10;;;;;;4124048;28;20455;-63
2022/01/14 01:31:04;;;;;;;15.50;7.22;;;15.70;85.20;;;;;;4111717;28;20097;-62
2022/01/14 01:33:27;;;;;;;8.95;6.30;;;15.70;85.20;;;;;;4111358;28;20046;-63
2022/01/14 01:35:50;;;;;;;19.45;7.93;;;15.70;85.00;;;;;;4112219;28;20161;-62
2022/01/14 01:38:16;;;;;;;11.10;6.53;;;15.70;85.20;;;;;;4111661;28;20058;-63
2022/01/14 01:40:40;;;;;;;14.52;6.55;;;15.70;85.20;;;;;;4111973;28;20050;-63
2022/01/14 01:43:06;;;;;;;17.35;7.28;;;15.70;85.20;;;;;;4112353;28;20097;-62
2022/01/14 01:45:31;;;;;;;10.43;6.10;;;15.70;85.00;;;;;;4114891;28;20104;-63
2022/01/14 01:47:55;;;;;;;11.75;7.03;;;15.70;85.00;;;;;;4127940;28;20050;-62
2022/01/14 01:50:21;;;;;;;18.17;7.07;;;15.60;85.10;;;;;;4122871;28;20054;-63
2022/01/14 01:52:45;;;;;;;16.05;7.03;;;15.60;85.10;;;;;;4111882;28;20468;-63
2022/01/14 01:55:09;;;;;;;15.07;7.03;;;15.60;85.20;;;;;;4111760;28;20055;-71
2022/01/14 01:57:32;;;;;;;22.25;7.68;;;15.50;85.20;;;;;;4095867;28;20059;-71
2022/01/14 01:59:55;;;;;;;20.35;7.00;;;15.50;85.40;;;;;;4093504;28;20086;-71
2022/01/14 02:02:19;;;;;;;18.65;8.55;;;15.50;86.20;;;;;;4100334;28;20047;-70
2022/01/14 02:04:42;;;;;;;19.77;6.97;;;15.60;85.90;;;;;;4111922;28;20058;-71
2022/01/14 02:07:05;;;;;;;18.15;7.80;;;15.70;85.30;;;;;;4095630;28;20050;-72
2022/01/14 02:09:28;;;;;;;15.73;7.50;;;15.70;85.20;;;;;;4095657;28;20444;-70
2022/01/14 02:11:52;;;;;;;17.23;6.68;;;15.80;85.00;;;;;;4095519;28;20047;-72
2022/01/14 02:14:28;;;;;;;17.98;7.70;;;15.90;84.70;;;;;;4097283;28;20083;-71
2022/01/14 02:17:27;;;;;;;21.40;8.00;;;15.90;84.40;;;;;;4100079;28;20046;-71
2022/01/14 02:22:43;;;;;;;14.30;7.18;;;16.10;83.40;;;;;;4110901;28;20097;-71
2022/01/14 02:25:11;;;;;;;13.63;6.60;;;16.10;83.60;;;;;;4113224;28;20074;-70
2022/01/14 02:27:37;;;;;;;17.17;6.65;;;16.10;83.60;;;;;;4113717;28;20576;-70
2022/01/14 02:30:00;;;;;;;14.25;8.00;;;16.10;83.30;;;;;;4111463;28;20098;-70
2022/01/14 02:32:23;;;;;;;13.98;7.38;;;16.10;83.60;;;;;;4111022;28;20502;-70
2022/01/14 02:34:46;;;;;;;16.10;7.65;;;16.00;83.50;;;;;;4111341;28;20447;-62
2022/01/14 02:37:30;;;;;;;13.70;6.85;;;16.00;83.70;;;;;;4094619;28;20453;-63
2022/01/14 02:39:53;;;;;;;13.05;7.55;;;16.00;83.90;;;;;;4095294;28;20135;-62
2022/01/14 02:42:16;;;;;;;14.55;7.22;;;16.00;84.10;;;;;;4095153;28;20468;-63
2022/01/14 02:44:38;;;;;;;18.60;8.15;;;15.90;84.00;;;;;;4096229;28;20188;-62
2022/01/14 02:47:04;;;;;;;14.75;8.43;;;15.90;83.80;;;;;;4127220;28;20073;-62
2022/01/14 02:49:31;;;;;;;15.95;7.28;;;15.90;83.60;;;;;;4125457;28;20058;-62
2022/01/14 02:51:54;;;;;;;20.20;8.40;;;15.90;83.70;;;;;;4110305;28;20112;-62
2022/01/14 02:54:22;;;;;;;17.20;8.55;;;15.80;83.90;;;;;;4110627;28;20062;-62
2022/01/14 02:56:49;;;;;;;13.65;7.63;;;15.90;84.30;;;;;;4094516;28;20047;-63
2022/01/14 02:59:16;;;;;;;18.75;8.60;;;15.90;84.20;;;;;;4094826;28;20119;-71
2022/01/14 03:01:41;;;;;;;15.15;8.93;;;15.90;84.20;;;;;;4094890;28;20432;-71
2022/01/14 03:04:05;;;;;;;18.35;8.32;;;15.90;84.60;;;;;;4110758;28;20101;-71
2022/01/14 03:06:29;;;;;;;16.10;8.35;;;15.90;83.70;;;;;;4125267;28;20061;-71
2022/01/14 03:08:52;;;;;;;16.77;8.82;;;15.90;83.80;;;;;;4127042;28;20050;-71
2022/01/14 03:11:22;;;;;;;18.20;9.57;;;15.90;83.60;;;;;;4126326;28;20471;-71
2022/01/14 03:13:45;;;;;;;16.30;8.52;;;15.90;83.70;;;;;;4126760;28;20116;-68
2022/01/14 03:16:08;;;;;;;16.75;8.45;;;15.90;83.90;;;;;;4117671;28;20105;-71
2022/01/14 03:18:37;;;;;;;20.55;8.82;;;15.90;84.00;;;;;;4127072;28;20097;-71
2022/01/14 03:21:09;;;;;;;18.42;9.65;;;15.80;83.80;;;;;;4126260;28;20112;-71
2022/01/14 03:23:32;;;;;;;21.20;9.43;;;15.90;83.70;;;;;;4126324;28;20450;-71
2022/01/14 03:25:56;;;;;;;17.30;9.25;;;15.90;83.70;;;;;;4119189;28;20089;-71
2022/01/14 03:28:23;;;;;;;15.85;9.07;;;15.80;83.90;;;;;;4108319;28;20649;-70
2022/01/14 03:30:46;;;;;;;20.02;9.13;;;15.80;84.10;;;;;;4110308;28;20081;-70
2022/01/14 03:33:09;;;;;;;15.57;8.15;;;15.90;84.20;;;;;;4110414;28;20105;-70
2022/01/14 03:35:32;;;;;;;16.70;9.00;;;15.90;84.20;;;;;;4118417;28;20058;-70
2022/01/14 03:37:56;;;;;;;19.75;9.13;;;16.00;83.90;;;;;;4126124;28;20491;-70
2022/01/14 03:40:18;;;;;;;16.52;9.18;;;16.10;83.30;;;;;;4094247;28;20055;-70
2022/01/14 03:42:42;;;;;;;15.15;8.50;;;16.20;82.90;;;;;;4094389;28;20047;-70
2022/01/14 03:45:07;;;;;;;16.13;8.60;;;16.30;82.30;;;;;;4103222;28;20498;-70
2022/01/14 03:47:30;;;;;;;19.13;8.32;;;16.30;81.90;;;;;;4121536;28;20049;-70
2022/01/14 03:49:54;;;;;;;15.02;8.90;;;16.30;82.60;;;;;;4117978;28;20105;-70
2022/01/14 03:52:17;;;;;;;15.13;8.40;;;16.40;81.80;;;;;;4110134;28;20051;-70
2022/01/14 03:54:40;;;;;;;16.73;8.73;;;16.30;81.60;;;;;;4113057;28;20494;-70
2022/01/14 03:57:03;;;;;;;18.15;8.77;;;16.30;81.70;;;;;;4125832;28;20058;-70
2022/01/14 03:59:26;;;;;;;22.92;9.73;;;16.30;81.70;;;;;;4125134;28;20109;-70
2022/01/14 04:01:51;;;;;;;19.13;8.18;;;16.30;81.80;;;;;;4125405;28;20050;-70
2022/01/14 04:04:14;;;;;;;18.58;8.75;;;16.20;82.10;;;;;;4104371;28;20054;-70
2022/01/14 04:06:37;;;;;;;17.90;8.77;;;16.20;82.40;;;;;;4110180;28;20117;-70
2022/01/14 04:09:00;;;;;;;18.88;9.55;;;16.20;82.40;;;;;;4109859;28;20055;-70
2022/01/14 04:11:23;;;;;;;15.10;9.20;;;16.20;82.30;;;;;;4109900;28;20058;-70
2022/01/14 04:13:49;;;;;;;21.40;9.55;;;16.20;82.10;;;;;;4110207;28;20058;-71
2022/01/14 04:16:12;;;;;;;16.08;9.43;;;16.20;82.10;;;;;;4108797;28;20050;-71
2022/01/14 04:18:37;;;;;;;18.65;9.20;;;16.20;82.10;;;;;;4109822;28;20054;-71
2022/01/14 04:21:00;;;;;;;20.45;9.32;;;16.20;82.00;;;;;;4110026;28;20047;-70
2022/01/14 04:23:23;;;;;;;15.55;8.60;;;16.10;82.40;;;;;;4110902;28;20042;-72
2022/01/14 04:25:48;;;;;;;16.17;8.88;;;16.10;82.80;;;;;;4126795;28;20441;-72
2022/01/14 04:28:11;;;;;;;18.58;9.25;;;16.10;83.00;;;;;;4129280;28;20096;-71
2022/01/14 04:30:35;;;;;;;19.17;9.43;;;16.20;82.60;;;;;;4129024;28;20108;-71
2022/01/14 04:32:59;;;;;;;19.58;8.40;;;16.30;82.10;;;;;;4126455;28;20454;-72
2022/01/14 04:35:23;;;;;;;18.27;8.55;;;16.30;81.80;;;;;;4125757;28;20117;-63
2022/01/14 04:37:46;;;;;;;16.55;8.57;;;16.40;81.60;;;;;;4129295;28;20050;-63
2022/01/14 04:40:12;;;;;;;18.65;8.77;;;16.30;81.50;;;;;;4129311;28;20050;-62
2022/01/14 04:42:36;;;;;;;17.65;9.30;;;16.30;81.60;;;;;;4129054;28;20556;-63
2022/01/14 04:44:59;;;;;;;15.35;8.50;;;16.30;81.70;;;;;;4118317;28;20098;-63
2022/01/14 04:47:32;;;;;;;15.38;8.73;;;16.20;82.00;;;;;;4111426;28;20058;-62
2022/01/14 04:49:55;;;;;;;18.83;7.93;;;16.20;83.20;;;;;;4110610;28;20050;-63
2022/01/14 04:52:19;;;;;;;21.58;9.07;;;16.20;82.30;;;;;;4112846;28;20102;-63
2022/01/14 04:54:42;;;;;;;16.83;8.55;;;16.30;82.10;;;;;;4116580;28;21069;-63
2022/01/14 04:57:05;;;;;;;18.17;9.02;;;16.30;82.00;;;;;;4128716;28;20097;-63
2022/01/14 04:59:28;;;;;;;16.42;8.57;;;16.30;81.80;;;;;;4128727;28;20046;-63
2022/01/14 05:01:51;;;;;;;13.68;9.10;;;16.20;81.80;;;;;;4128857;28;20058;-63
2022/01/14 05:04:14;;;;;;;14.32;8.93;;;16.20;82.00;;;;;;4115282;28;20101;-62
2022/01/14 05:06:38;;;;;;;17.50;9.15;;;16.10;82.10;;;;;;4112231;28;20101;-62
2022/01/14 05:09:15;;;;;;;18.10;9.02;;;16.10;82.40;;;;;;4112516;28;20550;-62
2022/01/14 05:11:41;;;;;;;16.23;9.05;;;16.00;83.00;;;;;;4111410;28;20054;-64
2022/01/14 05:14:04;;;;;;;20.15;9.57;;;16.10;83.00;;;;;;4119180;28;20101;-62
2022/01/14 05:16:27;;;;;;;12.20;8.48;;;16.10;82.60;;;;;;4128334;28;20061;-63
2022/01/14 05:18:50;;;;;;;20.98;9.18;;;16.20;82.40;;;;;;4128509;28;20050;-63
2022/01/14 05:21:14;;;;;;;17.95;8.32;;;16.20;82.20;;;;;;4128093;28;20054;-62
2022/01/14 05:23:37;;;;;;;17.50;9.63;;;16.20;82.30;;;;;;4120093;28;20541;-63
2022/01/14 05:26:01;;;;;;;19.30;9.23;;;16.20;82.40;;;;;;4140525;28;20050;-62
2022/01/14 05:28:24;;;;;;;18.23;9.13;;;16.20;82.20;;;;;;4128267;28;20202;-62
2022/01/14 05:30:48;;;;;;;19.35;9.23;;;16.30;82.00;;;;;;4128407;28;20057;-62
2022/01/14 05:33:11;;;;;;;15.45;9.63;;;16.30;81.70;;;;;;4119606;28;20110;-62
2022/01/14 05:35:34;;;;;;;16.83;8.85;;;16.30;81.70;;;;;;4127260;28;20054;-64
2022/01/14 05:37:57;;;;;;;18.85;10.00;;;16.30;81.80;;;;;;4128485;28;20050;-63
2022/01/14 05:40:23;;;;;;;15.93;8.90;;;16.20;81.80;;;;;;4128279;28;20050;-63
2022/01/14 05:42:48;;;;;;;19.00;9.02;;;16.20;82.00;;;;;;4121618;28;20054;-63
2022/01/14 05:45:13;;;;;;;19.13;9.43;;;16.10;83.00;;;;;;4112246;28;20046;-63
2022/01/14 05:47:38;;;;;;;19.88;10.75;;;16.10;82.40;;;;;;4111812;28;20196;-62
2022/01/14 05:50:11;;;;;;;17.92;9.30;;;16.00;82.60;;;;;;4111893;28;20090;-61
2022/01/14 05:52:34;;;;;;;16.95;9.43;;;16.00;83.10;;;;;;4111669;28;20094;-63
2022/01/14 05:54:57;;;;;;;16.98;9.73;;;16.00;83.00;;;;;;4100843;28;20050;-62
2022/01/14 05:57:20;;;;;;;18.00;8.80;;;16.00;83.10;;;;;;4111839;28;20054;-63
2022/01/14 05:59:44;;;;;;;14.85;9.02;;;16.00;82.90;;;;;;4110890;28;20480;-63
2022/01/14 06:02:07;;;;;;;18.83;9.63;;;16.00;82.80;;;;;;4110544;28;20054;-63
2022/01/14 06:04:30;;;;;;;26.85;10.52;;;16.10;82.80;;;;;;4125196;28;20050;-61
2022/01/14 06:06:53;;;;;;;17.48;8.50;;;16.20;82.70;;;;;;4127046;28;20442;-63
2022/01/14 06:09:17;;;;;;;20.58;9.52;;;16.20;82.30;;;;;;4126902;28;20050;-62
2022/01/14 06:11:40;;;;;;;17.88;9.55;;;16.30;82.00;;;;;;4126594;28;20050;-63
2022/01/14 06:14:03;;;;;;;17.88;10.43;;;16.30;81.70;;;;;;4118005;28;20058;-62
2022/01/14 06:16:27;;;;;;;21.02;10.20;;;16.30;81.70;;;;;;4109990;28;20078;-63
2022/01/14 06:18:50;;;;;;;21.52;9.70;;;16.30;81.80;;;;;;4110757;28;20105;-63
2022/01/14 06:21:13;;;;;;;16.33;9.85;;;16.30;81.60;;;;;;4110604;28;20383;-63
2022/01/14 06:23:36;;;;;;;14.45;8.82;;;16.30;81.40;;;;;;4119244;28;20077;-62
2022/01/14 06:26:16;;;;;;;21.38;9.15;;;16.30;81.40;;;;;;4094023;28;20078;-62
2022/01/14 06:28:42;;;;;;;19.17;9.65;;;16.30;81.30;;;;;;4094595;28;20083;-63
2022/01/14 06:31:05;;;;;;;21.95;9.63;;;16.20;81.40;;;;;;4094054;28;20062;-62
2022/01/14 06:33:29;;;;;;;16.65;8.57;;;16.20;81.60;;;;;;4115947;28;20620;-62
2022/01/14 06:35:52;;;;;;;16.10;8.95;;;16.10;81.80;;;;;;4124500;28;20054;-62
2022/01/14 06:38:15;;;;;;;18.17;9.55;;;16.10;82.10;;;;;;4110047;28;20378;-63
2022/01/14 06:40:38;;;;;;;16.52;8.32;;;16.10;82.70;;;;;;4110415;28;20063;-62
2022/01/14 06:43:02;;;;;;;17.25;9.05;;;16.10;82.80;;;;;;4116856;28;20054;-63
2022/01/14 06:45:25;;;;;;;17.10;7.82;;;16.20;82.40;;;;;;4126025;28;20050;-63
2022/01/14 06:47:49;;;;;;;14.80;8.23;;;16.20;82.10;;;;;;4126197;28;20112;-62
2022/01/14 06:50:14;;;;;;;17.33;8.30;;;16.20;82.60;;;;;;4109059;28;20050;-63
2022/01/14 06:52:37;;;;;;;14.23;8.57;;;16.20;81.40;;;;;;4110396;28;20090;-63
2022/01/14 06:55:00;;;;;;;14.10;7.03;;;16.20;81.70;;;;;;4110501;28;20117;-62
2022/01/14 06:57:24;;;;;;;13.50;7.85;;;16.20;82.00;;;;;;4108729;28;20385;-63
2022/01/14 06:59:47;;;;;;;13.43;8.18;;;16.20;82.00;;;;;;4071325;28;1146025;-63
2022/01/14 07:02:10;;;;;;;17.67;8.05;;;16.30;81.70;;;;;;4112129;28;20101;-63
2022/01/14 07:04:34;;;;;;;14.85;7.85;;;16.40;81.10;;;;;;4127003;28;20046;-63
2022/01/14 07:06:58;;;;;;;18.13;7.85;;;16.50;80.60;;;;;;4126733;28;20430;-63
2022/01/14 07:09:21;;;;;;;22.70;9.30;;;16.50;80.30;;;;;;4126838;28;21418;-62
2022/01/14 07:11:52;;;;;;;17.45;7.03;;;16.50;80.20;;;;;;4113317;28;20047;-62
2022/01/14 07:14:15;;;;;;;15.00;7.35;;;16.50;80.10;;;;;;4094341;28;20047;-63
2022/01/14 07:16:38;;;;;;;15.25;6.88;;;16.50;80.10;;;;;;4105825;28;20054;-63
2022/01/14 07:19:03;;;;;;;15.55;6.72;;;16.50;80.10;;;;;;4110557;28;20097;-62
2022/01/14 07:21:25;;;;;;;16.48;6.78;;;16.40;80.20;;;;;;4111126;28;20043;-61
2022/01/14 07:23:50;;;;;;;17.30;7.55;;;16.40;80.70;;;;;;4102149;28;20051;-61
2022/01/14 07:26:14;;;;;;;15.32;6.82;;;16.40;81.60;;;;;;4110559;28;20054;-61
2022/01/14 07:28:36;;;;;;;13.60;6.07;;;16.40;81.40;;;;;;4105735;28;20468;-61
2022/01/14 07:31:00;;;;;;;13.95;6.18;;;16.50;81.10;;;;;;4106196;28;20055;-61
2022/01/14 07:33:23;;;;;;;16.35;7.28;;;16.50;80.80;;;;;;4109357;28;20109;-60
2022/01/14 07:35:46;;;;;;;12.93;6.68;;;16.50;80.50;;;;;;4110483;28;20050;-61
2022/01/14 07:38:09;;;;;;;10.02;5.38;;;16.50;80.50;;;;;;4110353;28;20051;-61
2022/01/14 07:40:33;;;;;;;20.95;7.68;;;16.50;80.60;;;;;;4110466;28;20043;-61
2022/01/14 07:42:56;;;;;;;15.52;5.65;;;16.40;81.30;;;;;;4124078;28;20050;-61
2022/01/14 07:45:20;;;;;;;17.20;5.50;;;16.40;80.70;;;;;;4123974;28;20475;-60
2022/01/14 07:47:43;;;;;;;14.18;6.38;;;16.30;80.90;;;;;;4103080;28;20050;-61
2022/01/14 07:50:09;;;;;;;12.45;5.45;;;16.20;81.20;;;;;;4115049;28;20050;-60
2022/01/14 07:52:33;;;;;;;13.95;5.63;;;16.20;81.40;;;;;;4117274;28;20477;-60
2022/01/14 07:54:55;;;;;;;13.25;5.60;;;16.10;81.70;;;;;;4109750;28;21515;-61
2022/01/14 07:57:21;;;;;;;15.07;5.78;;;16.00;82.10;;;;;;4110346;28;20491;-60
2022/01/14 07:59:44;;;;;;;15.00;4.93;;;16.00;82.60;;;;;;4114095;28;20492;-60
2022/01/14 08:02:07;;;;;;;13.85;5.88;;;16.10;82.80;;;;;;4097341;28;20059;-61
2022/01/14 08:04:33;;;;;;;21.17;5.93;;;16.10;82.30;;;;;;4097254;28;20059;-61
2022/01/14 08:06:58;;;;;;;15.23;5.43;;;16.20;81.90;;;;;;4097594;28;20059;-60
2022/01/14 08:09:22;;;;;;;13.80;4.93;;;16.20;81.80;;;;;;4104428;28;20054;-61
2022/01/14 08:11:46;;;;;;;15.30;5.38;;;16.20;81.60;;;;;;4129256;28;20116;-61
2022/01/14 08:14:12;;;;;;;14.50;4.75;;;16.20;81.70;;;;;;4129492;28;20107;-61
2022/01/14 08:16:35;;;;;;;15.00;5.32;;;16.20;81.40;;;;;;4126668;28;20058;-62
2022/01/14 08:18:58;;;;;;;21.20;5.93;;;16.20;81.40;;;;;;4125743;28;20058;-62
2022/01/14 08:21:21;;;;;;;11.40;4.68;;;16.20;81.30;;;;;;4119132;28;20054;-63
2022/01/14 08:23:44;;;;;;;11.70;5.28;;;16.10;81.30;;;;;;4116018;28;20081;-62
2022/01/14 08:26:08;;;;;;;18.02;4.90;;;16.10;81.50;;;;;;4110293;28;20357;-62
2022/01/14 08:28:31;;;;;;;12.55;5.07;;;16.00;81.50;;;;;;4110098;28;20113;-62
2022/01/14 08:30:56;;;;;;;11.45;5.40;;;15.90;81.80;;;;;;4110931;28;20106;-62
2022/01/14 08:33:19;;;;;;;15.50;5.18;;;15.90;82.00;;;;;;4110118;28;20059;-63
2022/01/14 08:35:43;;;;;;;16.13;4.75;;;15.80;82.30;;;;;;4123765;28;20486;-62
2022/01/14 08:38:06;;;;;;;9.43;4.25;;;15.80;83.40;;;;;;4118465;28;20081;-63
2022/01/14 08:40:29;;;;;;;15.45;4.55;;;15.70;82.80;;;;;;4110226;28;20106;-63
2022/01/14 08:42:54;;;;;;;10.95;4.72;;;15.70;83.20;;;;;;4114801;28;20154;-62
2022/01/14 08:45:18;;;;;;;14.00;4.40;;;15.60;83.40;;;;;;4110214;28;20105;-62
2022/01/14 08:47:42;;;;;;;12.55;4.75;;;15.70;83.80;;;;;;4111224;28;20094;-62
2022/01/14 08:50:06;;;;;;;12.30;4.20;;;15.70;84.30;;;;;;4121108;28;20054;-62
2022/01/14 08:52:29;;;;;;;10.95;4.18;;;15.80;83.10;;;;;;4109899;28;20090;-62
2022/01/14 08:54:53;;;;;;;12.65;4.75;;;15.80;82.70;;;;;;4114295;28;20054;-62
2022/01/14 08:57:19;;;;;;;10.27;4.18;;;15.80;82.70;;;;;;4111243;28;20451;-62
2022/01/14 08:59:42;;;;;;;12.38;4.20;;;15.80;82.30;;;;;;4121801;28;20474;-62
2022/01/14 09:02:06;;;;;;;11.13;3.85;;;15.90;82.50;;;;;;4112329;28;20105;-62
2022/01/14 09:04:30;;;;;;;15.05;4.10;;;15.80;82.30;;;;;;4110385;28;20055;-62
2022/01/14 09:06:53;;;;;;;12.05;4.32;;;15.80;82.30;;;;;;4110291;28;20050;-62
2022/01/14 09:09:17;;;;;;;9.70;3.92;;;15.80;82.50;;;;;;4109898;28;20435;-62
2022/01/14 09:11:42;;;;;;;10.77;3.92;;;15.70;82.70;;;;;;4119407;28;20497;-63
2022/01/14 09:14:05;;;;;;;8.27;3.47;;;15.70;82.80;;;;;;4111054;28;20558;-62
2022/01/14 09:16:28;;;;;;;15.45;5.18;;;15.60;82.80;;;;;;4111038;28;20051;-63
2022/01/14 09:18:52;;;;;;;8.82;3.70;;;15.60;83.10;;;;;;4114793;28;20050;-63
2022/01/14 09:21:18;;;;;;;8.93;3.60;;;15.50;83.20;;;;;;4125360;28;20038;-63
2022/01/14 09:23:43;;;;;;;10.85;3.83;;;15.50;83.30;;;;;;4112013;28;20483;-62
2022/01/14 09:26:06;;;;;;;9.68;3.95;;;15.50;83.60;;;;;;4109544;28;20051;-63
2022/01/14 09:28:30;;;;;;;9.63;3.13;;;15.40;83.90;;;;;;4110298;28;20388;-67
2022/01/14 09:30:53;;;;;;;10.27;3.40;;;15.40;84.00;;;;;;4110008;28;20054;-66
2022/01/14 09:33:17;;;;;;;10.18;3.53;;;15.40;84.00;;;;;;4110623;28;20121;-66
2022/01/14 09:35:41;;;;;;;9.65;3.33;;;15.30;84.30;;;;;;4118898;28;20112;-68
2022/01/14 09:38:06;;;;;;;11.63;3.78;;;15.40;84.70;;;;;;4109693;28;20499;-66
2022/01/14 09:40:29;;;;;;;11.95;4.18;;;15.50;84.50;;;;;;4125668;28;20054;-66
2022/01/14 09:42:57;;;;;;;11.60;3.28;;;15.50;83.90;;;;;;4124299;28;20095;-68
2022/01/14 09:45:20;;;;;;;13.27;3.33;;;15.60;83.50;;;;;;4112515;28;20063;-66
2022/01/14 09:47:46;;;;;;;15.63;3.78;;;15.60;83.30;;;;;;4108299;28;20484;-67
2022/01/14 09:50:10;;;;;;;14.57;4.80;;;15.60;83.10;;;;;;4115418;28;20495;-69
2022/01/14 09:52:33;;;;;;;8.98;2.63;;;15.70;83.10;;;;;;4113772;28;20524;-67
2022/01/14 09:54:57;;;;;;;7.50;3.15;;;15.70;83.10;;;;;;4118609;28;20047;-67
2022/01/14 09:57:20;;;;;;;8.88;2.90;;;15.60;83.00;;;;;;4113148;28;20054;-66
2022/01/14 09:59:44;;;;;;;10.05;3.50;;;15.60;83.00;;;;;;4116159;28;20042;-67
2022/01/14 10:02:07;;;;;;;8.45;3.05;;;15.60;83.10;;;;;;4117558;28;20153;-67
2022/01/14 10:04:31;;;;;;;13.88;3.13;;;15.50;83.30;;;;;;4121018;28;20450;-67
2022/01/14 10:06:56;;;;;;;8.10;2.50;;;15.50;83.60;;;;;;4109675;28;20054;-67
2022/01/14 10:09:23;;;;;;;11.27;2.97;;;15.50;83.60;;;;;;4100937;28;20054;-66
2022/01/14 10:12:01;;;;;;;8.38;2.40;;;15.40;83.70;;;;;;4106478;28;20773;-67
2022/01/14 10:14:24;;;;;;;7.65;2.80;;;15.40;83.70;;;;;;4105163;28;20451;-66
2022/01/14 10:16:54;;;;;;;16.40;3.22;;;15.30;84.00;;;;;;4109447;28;20050;-66
2022/01/14 10:19:23;;;;;;;7.65;2.83;;;15.40;84.00;;;;;;4108450;28;20109;-65
2022/01/14 10:21:46;;;;;;;14.90;3.13;;;15.30;84.30;;;;;;4106774;28;20051;-66
2022/01/14 10:24:11;;;;;;;7.10;2.50;;;15.30;84.60;;;;;;4107809;28;20054;-66
2022/01/14 10:26:52;;;;;;;17.13;2.30;;;15.40;84.50;;;;;;4114430;28;20097;-66
2022/01/14 10:29:15;;;;;;;10.95;2.75;;;15.50;83.70;;;;;;4108144;28;20109;-65
2022/01/14 10:31:39;;;;;;;9.15;2.25;;;15.60;83.70;;;;;;4115455;28;20104;-65
2022/01/14 10:34:11;;;;;;;9.65;2.30;;;15.60;83.00;;;;;;4121320;28;20096;-68
2022/01/14 10:36:36;;;;;;;8.05;2.10;;;15.70;82.80;;;;;;4115778;28;20704;-67
2022/01/14 10:38:59;;;;;;;12.18;2.45;;;15.70;82.60;;;;;;4112620;28;20553;-67
2022/01/14 10:41:30;;;;;;;10.57;2.53;;;15.70;82.60;;;;;;4116542;28;20108;-68
2022/01/14 10:43:55;;;;;;;8.10;2.73;;;15.70;82.50;;;;;;4114116;28;20671;-64
2022/01/14 10:46:19;;;;;;;17.48;2.85;;;15.70;83.10;;;;;;4115548;28;20051;-67
2022/01/14 10:48:43;;;;;;;8.10;2.55;;;15.70;83.20;;;;;;4110627;28;20050;-69
2022/01/14 10:51:08;;;;;;;15.32;2.58;;;15.80;84.00;;;;;;4120028;28;20054;-62
2022/01/14 10:53:33;;;;;;;8.57;2.25;;;15.80;82.90;;;;;;4116170;28;20050;-62
2022/01/14 10:56:01;;;;;;;9.70;2.45;;;15.80;82.80;;;;;;4119995;28;20466;-61
2022/01/14 10:58:26;;;;;;;13.07;2.85;;;15.80;82.80;;;;;;4114229;28;20050;-62
2022/01/14 11:01:12;;;;;;;8.63;1.95;;;15.70;82.90;;;;;;4283184;23;20934;31
2022/01/14 11:03:39;;;;;;;7.47;2.03;;;15.60;83.90;;;;;;4091613;28;20055;-61
2022/01/14 11:06:21;;;;;;;10.23;3.25;;;15.60;83.50;;;;;;4103144;28;20050;-62
2022/01/14 11:08:44;;;;;;;10.27;2.22;;;15.60;83.80;;;;;;4091292;28;20047;-61
2022/01/14 11:11:08;;;;;;;9.05;2.22;;;15.60;83.80;;;;;;4091837;28;20534;-61
2022/01/14 11:13:31;;;;;;;18.50;2.95;;;15.70;83.40;;;;;;4090915;28;20058;-61
2022/01/14 11:15:55;;;;;;;9.70;2.58;;;15.80;82.90;;;;;;4091210;28;20055;-61
2022/01/14 11:18:19;;;;;;;13.95;2.75;;;15.80;82.50;;;;;;4092670;28;20055;-62
2022/01/14 11:23:25;;;;;;;10.45;3.00;;;15.90;82.20;;;;;;4426495;23;20033;-61
2022/01/14 11:25:57;;;;;;;14.77;2.72;;;15.90;82.20;;;;;;4089915;28;20176;-69
2022/01/14 11:28:29;;;;;;;9.27;2.55;;;15.90;82.30;;;;;;4090890;28;20118;-67
2022/01/14 11:30:52;;;;;;;8.82;2.50;;;15.80;82.40;;;;;;4092474;28;20102;-60
2022/01/14 11:33:19;;;;;;;13.30;2.42;;;15.80;82.50;;;;;;4093955;28;20121;-60
2022/01/14 11:35:53;;;;;;;11.10;2.72;;;15.70;82.80;;;;;;4087452;28;20055;-62
2022/01/14 11:38:37;;;;;;;10.25;2.60;;;15.70;83.00;;;;;;4083202;28;20090;-61
2022/01/14 11:41:01;;;;;;;8.70;2.45;;;15.70;83.00;;;;;;4078513;28;20480;-61
2022/01/14 11:43:58;;;;;;;10.30;3.20;;;15.60;83.40;;;;;;4094383;28;20055;-61
2022/01/14 11:46:43;;;;;;;14.80;3.53;;;15.60;83.40;;;;;;4091041;28;20055;-62
2022/01/14 11:49:32;;;;;;;11.70;3.10;;;15.50;83.60;;;;;;4081466;28;20051;-60
2022/01/14 11:52:01;;;;;;;12.68;3.30;;;15.50;83.80;;;;;;4091424;28;20439;-61
2022/01/14 11:54:38;;;;;;;12.82;3.67;;;15.50;84.00;;;;;;4076857;28;20566;-62
2022/01/14 11:57:01;;;;;;;10.95;3.55;;;15.40;84.20;;;;;;4090798;28;20085;-62
2022/01/14 11:59:43;;;;;;;15.95;6.03;;;15.40;84.40;;;;;;4095334;28;20121;-62
2022/01/14 12:02:26;;;;;;;11.63;3.28;;;15.30;84.20;;;;;;4083944;28;20215;-63
2022/01/14 12:05:02;;;;;;;13.05;3.00;;;15.30;84.50;;;;;;4090920;28;20062;-61
2022/01/14 12:07:27;;;;;;;12.77;3.58;;;15.20;84.60;;;;;;4090616;28;20537;-63
2022/01/14 12:10:00;;;;;;;14.35;3.40;;;15.20;84.90;;;;;;4090781;28;20047;-63
2022/01/14 12:12:24;;;;;;;11.80;3.13;;;15.20;85.00;;;;;;4091292;28;20054;-63
2022/01/14 12:14:55;;;;;;;13.30;3.50;;;15.10;85.10;;;;;;4091358;28;20083;-63
2022/01/14 12:17:32;;;;;;;;;;;15.10;85.20;;;;;;4091247;28;20495;-63
2022/01/14 12:19:55;;;;;;;13.80;2.58;;;15.10;85.30;;;;;;4090911;28;19930;-63
2022/01/14 12:22:23;;;;;;;13.32;4.30;;;15.00;85.60;;;;;;4091244;28;20051;-62
2022/01/14 12:24:57;;;;;;;13.57;3.30;;;15.00;85.70;;;;;;4091389;28;20056;-62
2022/01/14 12:27:46;;;;;;;17.08;4.50;;;15.00;85.90;;;;;;4090612;28;20059;-63
2022/01/14 12:30:25;;;;;;;9.57;3.03;;;15.00;87.30;;;;;;4091249;28;20094;-68
2022/01/14 12:32:53;;;;;;;14.43;3.53;;;15.10;87.90;;;;;;4090664;28;20102;-63
2022/01/14 12:35:18;;;;;;;13.48;3.17;;;15.10;87.50;;;;;;4091214;28;20102;-66
2022/01/14 12:37:46;;;;;;;12.43;3.47;;;15.20;87.70;;;;;;4090979;28;20435;-61
2022/01/14 12:40:13;;;;;;;13.82;3.58;;;15.30;88.40;;;;;;4090911;28;20043;-66
2022/01/14 12:42:37;;;;;;;10.38;3.20;;;15.40;87.80;;;;;;4092776;28;20486;-70